sensor_id;sensor_type;location;lat;lon;timestamp;P1;durP1;ratioP1;P2;durP2;ratioP2
34234;SDS011;20500;49.856;20.290;2024-01-25T00:02:38;12.90;;;3.60;;
34234;SDS011;20500;49.856;20.290;2024-01-25T00:05:44;8.70;;;2.60;;
34234;SDS011;20500;49.856;20.290;2024-01-25T00:08:51;11.10;;;2.70;;
34234;SDS011;20500;49.856;20.290;2024-01-25T00:11:57;12.60;;;3.50;;
34234;SDS011;20500;49.856;20.290;2024-01-25T00:15:03;11.10;;;2.90;;
34234;SDS011;20500;49.856;20.290;2024-01-25T00:18:09;10.20;;;2.90;;
34234;SDS011;20500;49.856;20.290;2024-01-25T00:21:15;10.50;;;2.50;;
34234;SDS011;20500;49.856;20.290;2024-01-25T00:24:21;8.70;;;2.40;;
34234;SDS011;20500;49.856;20.290;2024-01-25T00:27:27;11.20;;;2.60;;
34234;SDS011;20500;49.856;20.290;2024-01-25T00:30:33;10.80;;;3.00;;
34234;SDS011;20500;49.856;20.290;2024-01-25T00:33:39;9.80;;;2.80;;
34234;SDS011;20500;49.856;20.290;2024-01-25T00:36:45;10.40;;;2.70;;
34234;SDS011;20500;49.856;20.290;2024-01-25T00:39:53;13.20;;;3.10;;
34234;SDS011;20500;49.856;20.290;2024-01-25T00:43:00;11.30;;;2.80;;
34234;SDS011;20500;49.856;20.290;2024-01-25T00:46:07;11.00;;;3.20;;
34234;SDS011;20500;49.856;20.290;2024-01-25T00:49:15;11.30;;;2.50;;
34234;SDS011;20500;49.856;20.290;2024-01-25T00:52:22;11.80;;;2.60;;
34234;SDS011;20500;49.856;20.290;2024-01-25T00:55:29;9.90;;;2.30;;
34234;SDS011;20500;49.856;20.290;2024-01-25T00:58:37;10.10;;;2.60;;
34234;SDS011;20500;49.856;20.290;2024-01-25T01:01:44;11.70;;;2.90;;
34234;SDS011;20500;49.856;20.290;2024-01-25T01:04:53;12.20;;;2.70;;
34234;SDS011;20500;49.856;20.290;2024-01-25T01:07:59;12.50;;;2.70;;
34234;SDS011;20500;49.856;20.290;2024-01-25T01:11:06;12.70;;;2.90;;
34234;SDS011;20500;49.856;20.290;2024-01-25T01:14:12;11.20;;;2.70;;
34234;SDS011;20500;49.856;20.290;2024-01-25T01:17:18;14.70;;;3.60;;
34234;SDS011;20500;49.856;20.290;2024-01-25T01:20:23;12.90;;;2.80;;
34234;SDS011;20500;49.856;20.290;2024-01-25T01:23:29;13.20;;;2.70;;
34234;SDS011;20500;49.856;20.290;2024-01-25T01:26:35;13.10;;;2.50;;
34234;SDS011;20500;49.856;20.290;2024-01-25T01:29:41;10.80;;;2.60;;
34234;SDS011;20500;49.856;20.290;2024-01-25T01:32:46;11.40;;;2.60;;
34234;SDS011;20500;49.856;20.290;2024-01-25T01:35:53;12.60;;;2.40;;
34234;SDS011;20500;49.856;20.290;2024-01-25T01:38:59;9.20;;;2.40;;
34234;SDS011;20500;49.856;20.290;2024-01-25T01:42:05;12.10;;;2.50;;
34234;SDS011;20500;49.856;20.290;2024-01-25T01:45:11;11.30;;;2.50;;
34234;SDS011;20500;49.856;20.290;2024-01-25T01:48:17;9.70;;;2.40;;
34234;SDS011;20500;49.856;20.290;2024-01-25T01:51:23;10.20;;;2.30;;
34234;SDS011;20500;49.856;20.290;2024-01-25T01:54:29;8.50;;;1.90;;
34234;SDS011;20500;49.856;20.290;2024-01-25T01:57:35;10.40;;;2.40;;
34234;SDS011;20500;49.856;20.290;2024-01-25T02:00:42;8.90;;;2.20;;
34234;SDS011;20500;49.856;20.290;2024-01-25T02:03:49;9.20;;;2.10;;
34234;SDS011;20500;49.856;20.290;2024-01-25T02:06:55;10.70;;;2.10;;
34234;SDS011;20500;49.856;20.290;2024-01-25T02:10:01;12.10;;;2.80;;
34234;SDS011;20500;49.856;20.290;2024-01-25T02:13:08;10.80;;;2.30;;
34234;SDS011;20500;49.856;20.290;2024-01-25T02:16:14;10.30;;;2.80;;
34234;SDS011;20500;49.856;20.290;2024-01-25T02:19:22;9.60;;;1.90;;
34234;SDS011;20500;49.856;20.290;2024-01-25T02:22:27;10.60;;;2.90;;
34234;SDS011;20500;49.856;20.290;2024-01-25T02:25:33;9.30;;;2.40;;
34234;SDS011;20500;49.856;20.290;2024-01-25T02:28:39;10.70;;;2.50;;
34234;SDS011;20500;49.856;20.290;2024-01-25T02:31:44;11.40;;;2.50;;
34234;SDS011;20500;49.856;20.290;2024-01-25T02:34:50;9.70;;;2.00;;
34234;SDS011;20500;49.856;20.290;2024-01-25T02:37:56;10.40;;;2.70;;
34234;SDS011;20500;49.856;20.290;2024-01-25T02:41:02;10.90;;;2.10;;
34234;SDS011;20500;49.856;20.290;2024-01-25T02:44:08;11.80;;;2.50;;
34234;SDS011;20500;49.856;20.290;2024-01-25T02:50:19;10.60;;;2.20;;
34234;SDS011;20500;49.856;20.290;2024-01-25T02:56:29;10.70;;;2.20;;
34234;SDS011;20500;49.856;20.290;2024-01-25T02:59:37;8.90;;;2.00;;
34234;SDS011;20500;49.856;20.290;2024-01-25T03:02:43;8.30;;;1.70;;
34234;SDS011;20500;49.856;20.290;2024-01-25T03:05:49;8.90;;;1.80;;
34234;SDS011;20500;49.856;20.290;2024-01-25T03:08:56;10.40;;;1.90;;
34234;SDS011;20500;49.856;20.290;2024-01-25T03:12:02;8.50;;;1.70;;
34234;SDS011;20500;49.856;20.290;2024-01-25T03:15:11;11.00;;;2.30;;
34234;SDS011;20500;49.856;20.290;2024-01-25T03:18:18;10.10;;;2.00;;
34234;SDS011;20500;49.856;20.290;2024-01-25T03:21:24;8.70;;;2.00;;
34234;SDS011;20500;49.856;20.290;2024-01-25T03:24:30;12.70;;;2.40;;
34234;SDS011;20500;49.856;20.290;2024-01-25T03:27:36;7.30;;;1.90;;
34234;SDS011;20500;49.856;20.290;2024-01-25T03:30:42;9.70;;;2.40;;
34234;SDS011;20500;49.856;20.290;2024-01-25T03:33:47;12.10;;;2.30;;
34234;SDS011;20500;49.856;20.290;2024-01-25T03:36:53;7.20;;;1.70;;
34234;SDS011;20500;49.856;20.290;2024-01-25T03:39:59;10.70;;;2.00;;
34234;SDS011;20500;49.856;20.290;2024-01-25T03:43:06;9.40;;;1.80;;
34234;SDS011;20500;49.856;20.290;2024-01-25T03:46:22;8.00;;;1.70;;
34234;SDS011;20500;49.856;20.290;2024-01-25T03:49:28;10.00;;;1.90;;
34234;SDS011;20500;49.856;20.290;2024-01-25T03:52:34;10.80;;;2.20;;
34234;SDS011;20500;49.856;20.290;2024-01-25T03:55:40;8.90;;;2.10;;
34234;SDS011;20500;49.856;20.290;2024-01-25T03:58:46;10.70;;;2.40;;
34234;SDS011;20500;49.856;20.290;2024-01-25T04:01:52;11.50;;;2.70;;
34234;SDS011;20500;49.856;20.290;2024-01-25T04:04:58;10.90;;;2.00;;
34234;SDS011;20500;49.856;20.290;2024-01-25T04:11:09;8.70;;;2.00;;
34234;SDS011;20500;49.856;20.290;2024-01-25T04:14:16;10.20;;;2.20;;
34234;SDS011;20500;49.856;20.290;2024-01-25T04:17:22;9.00;;;2.10;;
34234;SDS011;20500;49.856;20.290;2024-01-25T04:20:28;11.20;;;2.20;;
34234;SDS011;20500;49.856;20.290;2024-01-25T04:23:37;9.80;;;2.00;;
34234;SDS011;20500;49.856;20.290;2024-01-25T04:26:43;8.80;;;1.90;;
34234;SDS011;20500;49.856;20.290;2024-01-25T04:29:48;10.90;;;2.50;;
34234;SDS011;20500;49.856;20.290;2024-01-25T04:32:54;9.30;;;2.10;;
34234;SDS011;20500;49.856;20.290;2024-01-25T04:36:00;12.70;;;2.60;;
34234;SDS011;20500;49.856;20.290;2024-01-25T04:39:06;9.10;;;2.20;;
34234;SDS011;20500;49.856;20.290;2024-01-25T04:42:12;11.80;;;2.40;;
34234;SDS011;20500;49.856;20.290;2024-01-25T04:45:18;9.50;;;2.30;;
34234;SDS011;20500;49.856;20.290;2024-01-25T04:48:24;12.40;;;2.20;;
34234;SDS011;20500;49.856;20.290;2024-01-25T04:51:29;10.40;;;2.40;;
34234;SDS011;20500;49.856;20.290;2024-01-25T04:54:35;11.60;;;2.70;;
34234;SDS011;20500;49.856;20.290;2024-01-25T04:57:41;12.90;;;2.30;;
34234;SDS011;20500;49.856;20.290;2024-01-25T05:00:48;9.90;;;2.10;;
34234;SDS011;20500;49.856;20.290;2024-01-25T05:03:55;9.60;;;2.00;;
34234;SDS011;20500;49.856;20.290;2024-01-25T05:07:01;7.90;;;2.00;;
34234;SDS011;20500;49.856;20.290;2024-01-25T05:13:13;10.00;;;2.20;;
34234;SDS011;20500;49.856;20.290;2024-01-25T05:16:19;10.40;;;2.20;;
34234;SDS011;20500;49.856;20.290;2024-01-25T05:19:25;10.30;;;2.00;;
34234;SDS011;20500;49.856;20.290;2024-01-25T05:22:30;12.60;;;2.40;;
34234;SDS011;20500;49.856;20.290;2024-01-25T05:25:43;10.50;;;2.40;;
34234;SDS011;20500;49.856;20.290;2024-01-25T05:28:48;10.10;;;1.80;;
34234;SDS011;20500;49.856;20.290;2024-01-25T05:31:54;9.40;;;2.10;;
34234;SDS011;20500;49.856;20.290;2024-01-25T05:38:05;9.10;;;1.70;;
34234;SDS011;20500;49.856;20.290;2024-01-25T05:41:13;10.20;;;2.10;;
34234;SDS011;20500;49.856;20.290;2024-01-25T05:44:19;12.70;;;2.90;;
34234;SDS011;20500;49.856;20.290;2024-01-25T05:47:25;12.10;;;2.30;;
34234;SDS011;20500;49.856;20.290;2024-01-25T05:50:30;7.70;;;1.80;;
34234;SDS011;20500;49.856;20.290;2024-01-25T05:53:36;8.80;;;2.00;;
34234;SDS011;20500;49.856;20.290;2024-01-25T05:56:42;10.30;;;2.40;;
34234;SDS011;20500;49.856;20.290;2024-01-25T05:59:48;8.90;;;1.90;;
34234;SDS011;20500;49.856;20.290;2024-01-25T06:02:53;11.80;;;2.20;;
34234;SDS011;20500;49.856;20.290;2024-01-25T06:05:59;9.60;;;2.00;;
34234;SDS011;20500;49.856;20.290;2024-01-25T06:09:06;11.90;;;2.10;;
34234;SDS011;20500;49.856;20.290;2024-01-25T06:12:16;10.00;;;2.30;;
34234;SDS011;20500;49.856;20.290;2024-01-25T06:15:22;10.70;;;2.10;;
34234;SDS011;20500;49.856;20.290;2024-01-25T06:18:27;10.60;;;2.30;;
34234;SDS011;20500;49.856;20.290;2024-01-25T06:21:33;12.50;;;2.30;;
34234;SDS011;20500;49.856;20.290;2024-01-25T06:24:40;12.30;;;2.30;;
34234;SDS011;20500;49.856;20.290;2024-01-25T06:27:46;8.90;;;2.00;;
34234;SDS011;20500;49.856;20.290;2024-01-25T06:30:52;11.80;;;2.00;;
34234;SDS011;20500;49.856;20.290;2024-01-25T06:33:58;11.50;;;3.00;;
34234;SDS011;20500;49.856;20.290;2024-01-25T06:37:04;13.80;;;3.40;;
34234;SDS011;20500;49.856;20.290;2024-01-25T06:40:11;14.40;;;3.10;;
34234;SDS011;20500;49.856;20.290;2024-01-25T06:43:17;12.10;;;3.20;;
34234;SDS011;20500;49.856;20.290;2024-01-25T06:46:23;8.90;;;2.30;;
34234;SDS011;20500;49.856;20.290;2024-01-25T06:49:29;10.40;;;2.20;;
34234;SDS011;20500;49.856;20.290;2024-01-25T06:52:34;9.10;;;2.20;;
34234;SDS011;20500;49.856;20.290;2024-01-25T06:55:40;11.30;;;2.50;;
34234;SDS011;20500;49.856;20.290;2024-01-25T06:58:46;13.70;;;2.70;;
34234;SDS011;20500;49.856;20.290;2024-01-25T07:04:57;11.70;;;2.60;;
34234;SDS011;20500;49.856;20.290;2024-01-25T07:08:06;10.60;;;2.60;;
34234;SDS011;20500;49.856;20.290;2024-01-25T07:11:16;12.50;;;2.70;;
34234;SDS011;20500;49.856;20.290;2024-01-25T07:14:22;12.10;;;2.60;;
34234;SDS011;20500;49.856;20.290;2024-01-25T07:17:27;9.30;;;2.20;;
34234;SDS011;20500;49.856;20.290;2024-01-25T07:20:34;10.00;;;2.40;;
34234;SDS011;20500;49.856;20.290;2024-01-25T07:23:40;12.40;;;2.70;;
34234;SDS011;20500;49.856;20.290;2024-01-25T07:26:46;12.90;;;2.50;;
34234;SDS011;20500;49.856;20.290;2024-01-25T07:29:52;10.80;;;2.50;;
34234;SDS011;20500;49.856;20.290;2024-01-25T07:32:58;14.10;;;2.60;;
34234;SDS011;20500;49.856;20.290;2024-01-25T07:39:09;13.60;;;2.80;;
34234;SDS011;20500;49.856;20.290;2024-01-25T07:42:15;13.50;;;2.70;;
34234;SDS011;20500;49.856;20.290;2024-01-25T07:45:21;9.70;;;2.40;;
34234;SDS011;20500;49.856;20.290;2024-01-25T07:48:27;12.00;;;2.70;;
34234;SDS011;20500;49.856;20.290;2024-01-25T07:51:33;11.80;;;2.90;;
34234;SDS011;20500;49.856;20.290;2024-01-25T07:54:39;12.50;;;3.20;;
34234;SDS011;20500;49.856;20.290;2024-01-25T07:57:45;10.50;;;2.60;;
34234;SDS011;20500;49.856;20.290;2024-01-25T08:00:52;13.00;;;2.80;;
34234;SDS011;20500;49.856;20.290;2024-01-25T08:03:58;11.50;;;2.50;;
34234;SDS011;20500;49.856;20.290;2024-01-25T08:07:04;11.10;;;3.20;;
34234;SDS011;20500;49.856;20.290;2024-01-25T08:10:12;10.20;;;2.80;;
34234;SDS011;20500;49.856;20.290;2024-01-25T08:13:18;9.60;;;2.80;;
34234;SDS011;20500;49.856;20.290;2024-01-25T08:16:26;11.70;;;3.10;;
34234;SDS011;20500;49.856;20.290;2024-01-25T08:19:31;8.80;;;2.40;;
34234;SDS011;20500;49.856;20.290;2024-01-25T08:25:42;11.40;;;2.40;;
34234;SDS011;20500;49.856;20.290;2024-01-25T08:28:48;10.10;;;2.40;;
34234;SDS011;20500;49.856;20.290;2024-01-25T08:31:54;9.40;;;2.20;;
34234;SDS011;20500;49.856;20.290;2024-01-25T08:34:59;14.20;;;3.10;;
34234;SDS011;20500;49.856;20.290;2024-01-25T08:38:05;10.30;;;2.40;;
34234;SDS011;20500;49.856;20.290;2024-01-25T08:41:12;13.50;;;3.40;;
34234;SDS011;20500;49.856;20.290;2024-01-25T08:44:19;12.00;;;2.80;;
34234;SDS011;20500;49.856;20.290;2024-01-25T08:47:24;12.30;;;3.00;;
34234;SDS011;20500;49.856;20.290;2024-01-25T08:50:30;12.10;;;2.90;;
34234;SDS011;20500;49.856;20.290;2024-01-25T08:53:37;12.00;;;3.00;;
34234;SDS011;20500;49.856;20.290;2024-01-25T08:56:43;11.70;;;2.60;;
34234;SDS011;20500;49.856;20.290;2024-01-25T08:59:49;11.50;;;3.00;;
34234;SDS011;20500;49.856;20.290;2024-01-25T09:02:55;13.30;;;3.30;;
34234;SDS011;20500;49.856;20.290;2024-01-25T09:06:01;9.30;;;3.10;;
34234;SDS011;20500;49.856;20.290;2024-01-25T09:09:09;13.30;;;3.20;;
34234;SDS011;20500;49.856;20.290;2024-01-25T09:12:15;12.10;;;3.30;;
34234;SDS011;20500;49.856;20.290;2024-01-25T09:15:21;13.60;;;3.00;;
34234;SDS011;20500;49.856;20.290;2024-01-25T09:18:27;12.50;;;2.80;;
34234;SDS011;20500;49.856;20.290;2024-01-25T09:21:33;11.20;;;2.90;;
34234;SDS011;20500;49.856;20.290;2024-01-25T09:24:41;11.70;;;2.90;;
34234;SDS011;20500;49.856;20.290;2024-01-25T09:27:47;10.90;;;2.60;;
34234;SDS011;20500;49.856;20.290;2024-01-25T09:30:53;13.80;;;3.40;;
34234;SDS011;20500;49.856;20.290;2024-01-25T09:37:26;12.00;;;2.90;;
34234;SDS011;20500;49.856;20.290;2024-01-25T09:40:33;14.80;;;3.30;;
34234;SDS011;20500;49.856;20.290;2024-01-25T09:43:39;14.00;;;3.60;;
34234;SDS011;20500;49.856;20.290;2024-01-25T09:46:46;14.50;;;3.20;;
34234;SDS011;20500;49.856;20.290;2024-01-25T09:49:52;13.60;;;3.80;;
34234;SDS011;20500;49.856;20.290;2024-01-25T09:52:58;13.80;;;3.50;;
34234;SDS011;20500;49.856;20.290;2024-01-25T09:56:07;16.20;;;4.50;;
34234;SDS011;20500;49.856;20.290;2024-01-25T09:59:14;11.30;;;2.90;;
34234;SDS011;20500;49.856;20.290;2024-01-25T10:02:20;15.20;;;3.50;;
34234;SDS011;20500;49.856;20.290;2024-01-25T10:05:27;16.40;;;4.00;;
34234;SDS011;20500;49.856;20.290;2024-01-25T10:08:33;16.70;;;3.60;;
34234;SDS011;20500;49.856;20.290;2024-01-25T10:11:38;15.40;;;3.70;;
34234;SDS011;20500;49.856;20.290;2024-01-25T10:14:52;14.10;;;3.60;;
34234;SDS011;20500;49.856;20.290;2024-01-25T10:17:58;19.90;;;4.80;;
34234;SDS011;20500;49.856;20.290;2024-01-25T10:21:24;12.70;;;3.70;;
34234;SDS011;20500;49.856;20.290;2024-01-25T10:24:30;16.20;;;3.70;;
34234;SDS011;20500;49.856;20.290;2024-01-25T10:27:37;15.20;;;4.00;;
34234;SDS011;20500;49.856;20.290;2024-01-25T10:30:45;13.80;;;3.50;;
34234;SDS011;20500;49.856;20.290;2024-01-25T10:33:52;17.40;;;3.90;;
34234;SDS011;20500;49.856;20.290;2024-01-25T10:36:59;13.60;;;3.50;;
34234;SDS011;20500;49.856;20.290;2024-01-25T10:40:09;19.60;;;4.30;;
34234;SDS011;20500;49.856;20.290;2024-01-25T10:43:17;15.50;;;3.70;;
34234;SDS011;20500;49.856;20.290;2024-01-25T10:46:23;14.70;;;4.00;;
34234;SDS011;20500;49.856;20.290;2024-01-25T10:49:29;30.70;;;20.60;;
34234;SDS011;20500;49.856;20.290;2024-01-25T10:52:36;19.90;;;7.30;;
34234;SDS011;20500;49.856;20.290;2024-01-25T10:55:44;20.40;;;7.30;;
34234;SDS011;20500;49.856;20.290;2024-01-25T10:58:50;60.60;;;37.70;;
34234;SDS011;20500;49.856;20.290;2024-01-25T11:01:56;25.00;;;14.00;;
34234;SDS011;20500;49.856;20.290;2024-01-25T11:05:07;22.20;;;11.60;;
34234;SDS011;20500;49.856;20.290;2024-01-25T11:08:19;37.50;;;24.50;;
34234;SDS011;20500;49.856;20.290;2024-01-25T11:11:25;21.10;;;10.20;;
34234;SDS011;20500;49.856;20.290;2024-01-25T11:14:32;20.50;;;10.10;;
34234;SDS011;20500;49.856;20.290;2024-01-25T11:17:40;23.00;;;11.90;;
34234;SDS011;20500;49.856;20.290;2024-01-25T11:20:47;32.60;;;19.80;;
34234;SDS011;20500;49.856;20.290;2024-01-25T11:24:00;23.20;;;10.40;;
34234;SDS011;20500;49.856;20.290;2024-01-25T11:27:06;67.60;;;43.80;;
34234;SDS011;20500;49.856;20.290;2024-01-25T11:30:14;32.00;;;16.20;;
34234;SDS011;20500;49.856;20.290;2024-01-25T11:33:21;20.70;;;8.70;;
34234;SDS011;20500;49.856;20.290;2024-01-25T11:36:28;18.60;;;8.50;;
34234;SDS011;20500;49.856;20.290;2024-01-25T11:39:34;21.20;;;10.50;;
34234;SDS011;20500;49.856;20.290;2024-01-25T11:42:40;24.80;;;11.10;;
34234;SDS011;20500;49.856;20.290;2024-01-25T11:45:48;21.00;;;7.30;;
34234;SDS011;20500;49.856;20.290;2024-01-25T11:48:54;18.20;;;5.10;;
34234;SDS011;20500;49.856;20.290;2024-01-25T11:55:06;14.80;;;4.60;;
34234;SDS011;20500;49.856;20.290;2024-01-25T11:58:13;17.80;;;5.00;;
34234;SDS011;20500;49.856;20.290;2024-01-25T12:01:19;15.90;;;5.30;;
34234;SDS011;20500;49.856;20.290;2024-01-25T12:04:27;19.00;;;8.40;;
34234;SDS011;20500;49.856;20.290;2024-01-25T12:07:35;14.90;;;5.30;;
34234;SDS011;20500;49.856;20.290;2024-01-25T12:10:43;14.00;;;6.60;;
34234;SDS011;20500;49.856;20.290;2024-01-25T12:13:49;13.80;;;5.10;;
34234;SDS011;20500;49.856;20.290;2024-01-25T12:16:56;16.30;;;6.40;;
34234;SDS011;20500;49.856;20.290;2024-01-25T12:20:02;14.90;;;4.80;;
34234;SDS011;20500;49.856;20.290;2024-01-25T12:23:14;36.80;;;23.20;;
34234;SDS011;20500;49.856;20.290;2024-01-25T12:26:20;44.00;;;26.60;;
34234;SDS011;20500;49.856;20.290;2024-01-25T12:29:26;49.20;;;25.30;;
34234;SDS011;20500;49.856;20.290;2024-01-25T12:32:31;179.50;;;94.20;;
34234;SDS011;20500;49.856;20.290;2024-01-25T12:35:37;138.20;;;99.00;;
34234;SDS011;20500;49.856;20.290;2024-01-25T12:38:43;32.30;;;16.90;;
34234;SDS011;20500;49.856;20.290;2024-01-25T12:41:51;33.90;;;19.00;;
34234;SDS011;20500;49.856;20.290;2024-01-25T12:44:57;44.50;;;30.00;;
34234;SDS011;20500;49.856;20.290;2024-01-25T12:48:03;31.30;;;17.90;;
34234;SDS011;20500;49.856;20.290;2024-01-25T12:51:11;20.80;;;10.70;;
34234;SDS011;20500;49.856;20.290;2024-01-25T12:54:17;22.80;;;11.30;;
34234;SDS011;20500;49.856;20.290;2024-01-25T12:57:23;15.30;;;6.20;;
34234;SDS011;20500;49.856;20.290;2024-01-25T13:00:29;40.70;;;32.40;;
34234;SDS011;20500;49.856;20.290;2024-01-25T13:03:36;18.70;;;9.60;;
34234;SDS011;20500;49.856;20.290;2024-01-25T13:06:42;22.00;;;11.90;;
34234;SDS011;20500;49.856;20.290;2024-01-25T13:09:48;17.30;;;6.20;;
34234;SDS011;20500;49.856;20.290;2024-01-25T13:12:54;12.30;;;4.20;;
34234;SDS011;20500;49.856;20.290;2024-01-25T13:15:59;13.70;;;4.30;;
34234;SDS011;20500;49.856;20.290;2024-01-25T13:22:10;14.10;;;3.90;;
34234;SDS011;20500;49.856;20.290;2024-01-25T13:25:16;12.50;;;4.00;;
34234;SDS011;20500;49.856;20.290;2024-01-25T13:28:21;14.70;;;4.40;;
34234;SDS011;20500;49.856;20.290;2024-01-25T13:31:27;17.00;;;7.00;;
34234;SDS011;20500;49.856;20.290;2024-01-25T13:34:33;13.00;;;3.80;;
34234;SDS011;20500;49.856;20.290;2024-01-25T13:37:38;13.90;;;3.90;;
34234;SDS011;20500;49.856;20.290;2024-01-25T13:40:44;15.80;;;3.30;;
34234;SDS011;20500;49.856;20.290;2024-01-25T13:43:50;13.40;;;2.80;;
34234;SDS011;20500;49.856;20.290;2024-01-25T13:46:55;9.80;;;2.60;;
34234;SDS011;20500;49.856;20.290;2024-01-25T13:50:02;11.60;;;3.10;;
34234;SDS011;20500;49.856;20.290;2024-01-25T13:53:08;10.70;;;2.90;;
34234;SDS011;20500;49.856;20.290;2024-01-25T13:56:14;11.30;;;3.00;;
34234;SDS011;20500;49.856;20.290;2024-01-25T13:59:20;13.00;;;3.00;;
34234;SDS011;20500;49.856;20.290;2024-01-25T14:02:27;13.00;;;2.90;;
34234;SDS011;20500;49.856;20.290;2024-01-25T14:05:32;12.90;;;3.30;;
34234;SDS011;20500;49.856;20.290;2024-01-25T14:08:39;11.10;;;2.80;;
34234;SDS011;20500;49.856;20.290;2024-01-25T14:11:44;14.00;;;3.40;;
34234;SDS011;20500;49.856;20.290;2024-01-25T14:14:50;13.20;;;3.00;;
34234;SDS011;20500;49.856;20.290;2024-01-25T14:17:56;12.20;;;2.90;;
34234;SDS011;20500;49.856;20.290;2024-01-25T14:21:02;13.90;;;3.50;;
34234;SDS011;20500;49.856;20.290;2024-01-25T14:27:13;13.00;;;3.40;;
34234;SDS011;20500;49.856;20.290;2024-01-25T14:30:19;13.90;;;4.00;;
34234;SDS011;20500;49.856;20.290;2024-01-25T14:33:25;15.10;;;3.70;;
34234;SDS011;20500;49.856;20.290;2024-01-25T14:36:31;10.90;;;2.80;;
34234;SDS011;20500;49.856;20.290;2024-01-25T14:39:37;11.60;;;3.20;;
34234;SDS011;20500;49.856;20.290;2024-01-25T14:42:52;13.40;;;3.80;;
34234;SDS011;20500;49.856;20.290;2024-01-25T14:45:58;14.70;;;3.90;;
34234;SDS011;20500;49.856;20.290;2024-01-25T14:49:04;13.20;;;3.10;;
34234;SDS011;20500;49.856;20.290;2024-01-25T14:52:10;13.00;;;3.00;;
34234;SDS011;20500;49.856;20.290;2024-01-25T14:55:18;12.90;;;3.20;;
34234;SDS011;20500;49.856;20.290;2024-01-25T14:58:24;13.80;;;3.00;;
34234;SDS011;20500;49.856;20.290;2024-01-25T15:01:30;15.20;;;3.90;;
34234;SDS011;20500;49.856;20.290;2024-01-25T15:04:36;13.00;;;3.30;;
34234;SDS011;20500;49.856;20.290;2024-01-25T15:10:46;11.70;;;3.30;;
34234;SDS011;20500;49.856;20.290;2024-01-25T15:13:52;15.80;;;3.70;;
34234;SDS011;20500;49.856;20.290;2024-01-25T15:16:57;13.70;;;3.90;;
34234;SDS011;20500;49.856;20.290;2024-01-25T15:20:05;14.10;;;4.40;;
34234;SDS011;20500;49.856;20.290;2024-01-25T15:23:12;11.80;;;3.20;;
34234;SDS011;20500;49.856;20.290;2024-01-25T15:26:18;14.90;;;4.40;;
34234;SDS011;20500;49.856;20.290;2024-01-25T15:29:24;14.30;;;4.10;;
34234;SDS011;20500;49.856;20.290;2024-01-25T15:35:34;17.70;;;5.00;;
34234;SDS011;20500;49.856;20.290;2024-01-25T15:38:40;13.50;;;3.60;;
34234;SDS011;20500;49.856;20.290;2024-01-25T15:41:46;11.20;;;2.80;;
34234;SDS011;20500;49.856;20.290;2024-01-25T15:44:53;16.80;;;5.30;;
34234;SDS011;20500;49.856;20.290;2024-01-25T15:47:59;16.90;;;5.30;;
34234;SDS011;20500;49.856;20.290;2024-01-25T15:51:04;17.60;;;5.10;;
34234;SDS011;20500;49.856;20.290;2024-01-25T15:54:10;16.30;;;4.90;;
34234;SDS011;20500;49.856;20.290;2024-01-25T15:57:17;15.80;;;5.30;;
34234;SDS011;20500;49.856;20.290;2024-01-25T16:03:27;15.40;;;4.70;;
34234;SDS011;20500;49.856;20.290;2024-01-25T16:06:33;21.10;;;7.90;;
34234;SDS011;20500;49.856;20.290;2024-01-25T16:09:39;19.20;;;8.10;;
34234;SDS011;20500;49.856;20.290;2024-01-25T16:12:44;30.30;;;17.50;;
34234;SDS011;20500;49.856;20.290;2024-01-25T16:15:51;20.60;;;9.40;;
34234;SDS011;20500;49.856;20.290;2024-01-25T16:18:57;28.50;;;16.50;;
34234;SDS011;20500;49.856;20.290;2024-01-25T16:22:07;40.40;;;27.40;;
34234;SDS011;20500;49.856;20.290;2024-01-25T16:25:13;56.00;;;39.30;;
34234;SDS011;20500;49.856;20.290;2024-01-25T16:31:23;33.20;;;19.40;;
34234;SDS011;20500;49.856;20.290;2024-01-25T16:34:28;54.00;;;37.70;;
34234;SDS011;20500;49.856;20.290;2024-01-25T16:37:34;28.20;;;15.80;;
34234;SDS011;20500;49.856;20.290;2024-01-25T16:43:45;28.90;;;15.00;;
34234;SDS011;20500;49.856;20.290;2024-01-25T16:46:51;23.60;;;13.00;;
34234;SDS011;20500;49.856;20.290;2024-01-25T16:49:56;31.70;;;19.50;;
34234;SDS011;20500;49.856;20.290;2024-01-25T16:53:03;24.40;;;11.70;;
34234;SDS011;20500;49.856;20.290;2024-01-25T16:56:08;19.40;;;8.80;;
34234;SDS011;20500;49.856;20.290;2024-01-25T16:59:14;20.40;;;7.60;;
34234;SDS011;20500;49.856;20.290;2024-01-25T17:02:20;17.90;;;7.90;;
34234;SDS011;20500;49.856;20.290;2024-01-25T17:05:25;17.30;;;7.20;;
34234;SDS011;20500;49.856;20.290;2024-01-25T17:08:31;19.70;;;8.70;;
34234;SDS011;20500;49.856;20.290;2024-01-25T17:11:37;17.10;;;6.00;;
34234;SDS011;20500;49.856;20.290;2024-01-25T17:14:43;16.40;;;6.30;;
34234;SDS011;20500;49.856;20.290;2024-01-25T17:17:48;22.10;;;12.60;;
34234;SDS011;20500;49.856;20.290;2024-01-25T17:20:54;18.80;;;6.50;;
34234;SDS011;20500;49.856;20.290;2024-01-25T17:24:00;16.20;;;6.30;;
34234;SDS011;20500;49.856;20.290;2024-01-25T17:27:06;15.40;;;5.00;;
34234;SDS011;20500;49.856;20.290;2024-01-25T17:30:13;16.20;;;5.00;;
34234;SDS011;20500;49.856;20.290;2024-01-25T17:33:20;17.50;;;4.70;;
34234;SDS011;20500;49.856;20.290;2024-01-25T17:36:26;14.40;;;4.60;;
34234;SDS011;20500;49.856;20.290;2024-01-25T17:39:32;13.40;;;4.80;;
34234;SDS011;20500;49.856;20.290;2024-01-25T17:42:38;14.60;;;4.70;;
34234;SDS011;20500;49.856;20.290;2024-01-25T17:45:43;13.50;;;4.20;;
34234;SDS011;20500;49.856;20.290;2024-01-25T17:48:49;13.80;;;4.00;;
34234;SDS011;20500;49.856;20.290;2024-01-25T17:51:55;19.90;;;6.40;;
34234;SDS011;20500;49.856;20.290;2024-01-25T17:55:01;20.80;;;6.20;;
34234;SDS011;20500;49.856;20.290;2024-01-25T17:58:09;18.10;;;5.60;;
34234;SDS011;20500;49.856;20.290;2024-01-25T18:01:14;16.50;;;4.70;;
34234;SDS011;20500;49.856;20.290;2024-01-25T18:04:20;13.30;;;4.40;;
34234;SDS011;20500;49.856;20.290;2024-01-25T18:07:26;15.80;;;4.70;;
34234;SDS011;20500;49.856;20.290;2024-01-25T18:10:32;21.10;;;8.80;;
34234;SDS011;20500;49.856;20.290;2024-01-25T18:13:37;18.00;;;7.90;;
34234;SDS011;20500;49.856;20.290;2024-01-25T18:16:43;17.70;;;7.20;;
34234;SDS011;20500;49.856;20.290;2024-01-25T18:19:49;16.60;;;5.70;;
34234;SDS011;20500;49.856;20.290;2024-01-25T18:22:55;19.50;;;8.50;;
34234;SDS011;20500;49.856;20.290;2024-01-25T18:26:00;20.60;;;6.80;;
34234;SDS011;20500;49.856;20.290;2024-01-25T18:29:07;16.20;;;5.40;;
34234;SDS011;20500;49.856;20.290;2024-01-25T18:32:13;19.80;;;7.00;;
34234;SDS011;20500;49.856;20.290;2024-01-25T18:35:19;17.20;;;4.80;;
34234;SDS011;20500;49.856;20.290;2024-01-25T18:38:25;22.00;;;8.50;;
34234;SDS011;20500;49.856;20.290;2024-01-25T18:41:30;17.70;;;6.40;;
34234;SDS011;20500;49.856;20.290;2024-01-25T18:44:39;18.80;;;7.00;;
34234;SDS011;20500;49.856;20.290;2024-01-25T18:47:45;21.30;;;8.50;;
34234;SDS011;20500;49.856;20.290;2024-01-25T18:50:51;19.70;;;7.00;;
34234;SDS011;20500;49.856;20.290;2024-01-25T18:53:57;18.40;;;7.40;;
34234;SDS011;20500;49.856;20.290;2024-01-25T18:57:05;17.60;;;5.70;;
34234;SDS011;20500;49.856;20.290;2024-01-25T19:00:12;16.10;;;5.50;;
34234;SDS011;20500;49.856;20.290;2024-01-25T19:03:20;21.60;;;8.40;;